Time,TemperatureF,DewpointF,PressureIn,WindDirection,WindDirectionDegrees,WindSpeedMPH,WindSpeedGustMPH,Humidity,HourlyPrecipIn,Conditions,Clouds,dailyrainin,SoftwareType,DateUTC
2013-01-31 00:03:00,30.0,28.0,29.24,WSW,252,8.0,17.0,94,0.00,,,0.56,,2013-01-31 05:03:00,
2013-01-31 00:10:00,29.0,25.0,29.28,West,270,9.0,18.0,83,0.00,,,0.56,,2013-01-31 05:10:00,
2013-01-31 00:11:00,30.0,28.0,29.24,WSW,252,8.0,17.0,94,0.00,,,0.56,,2013-01-31 05:11:00,
2013-01-31 00:22:00,30.0,27.0,29.26,West,266,12.0,22.0,89,0.00,,,0.56,,2013-01-31 05:22:00,
2013-01-31 00:32:00,30.0,27.0,29.26,West,266,12.0,22.0,89,0.00,,,0.56,,2013-01-31 05:32:00,
2013-01-31 00:42:00,29.0,25.0,29.28,West,270,9.0,18.0,83,0.00,,,0.56,,2013-01-31 05:42:00,
2013-01-31 00:52:00,29.0,25.0,29.28,West,270,9.0,18.0,83,0.00,,,0.56,,2013-01-31 05:52:00,
2013-01-31 01:01:00,29.0,25.0,29.28,West,270,9.0,18.0,83,0.00,,,0.56,,2013-01-31 06:01:00,
2013-01-31 09:03:00,21.0,16.0,29.57,West,278,8.0,17.0,82,0.00,,,0.08,,2013-01-31 14:03:00,
2013-01-31 09:11:00,21.0,16.0,29.57,West,278,8.0,17.0,82,0.00,,,0.08,,2013-01-31 14:11:00,
2013-01-31 09:22:00,21.0,17.0,29.57,WNW,284,8.0,15.0,85,0.00,,,0.08,,2013-01-31 14:22:00,
2013-01-31 09:32:00,20.0,18.0,29.58,NW,305,6.0,11.0,93,0.00,,,0.08,,2013-01-31 14:32:00,
2013-01-31 09:42:00,20.0,18.0,29.58,NW,305,6.0,11.0,93,0.00,,,0.08,,2013-01-31 14:42:00,
2013-01-31 09:52:00,20.0,18.0,29.59,WSW,238,5.0,10.0,92,0.00,,,0.08,,2013-01-31 14:52:00,
2013-01-31 10:03:00,19.0,17.0,29.60,WSW,240,7.0,12.0,93,0.00,,,0.08,,2013-01-31 15:03:00,
2013-01-31 10:12:00,19.0,17.0,29.60,WSW,240,7.0,12.0,93,0.00,,,0.08,,2013-01-31 15:12:00,
2013-01-31 10:23:00,19.0,18.0,29.61,WSW,242,5.0,10.0,94,0.00,,,0.08,,2013-01-31 15:23:00,
2013-01-31 10:32:00,19.0,17.0,29.62,West,269,9.0,14.0,92,0.00,,,0.08,,2013-01-31 15:32:00,
2013-01-31 10:42:00,19.0,17.0,29.62,West,269,9.0,14.0,92,0.00,,,0.08,,2013-01-31 15:42:00,
2013-01-31 10:52:00,20.0,18.0,29.62,West,271,4.0,13.0,90,0.00,,,0.08,,2013-01-31 15:52:00,
2013-01-31 11:03:00,20.0,18.0,29.62,West,271,4.0,13.0,90,0.00,,,0.08,,2013-01-31 16:03:00,
2013-01-31 11:13:00,20.0,18.0,29.62,West,271,4.0,13.0,90,0.00,,,0.08,,2013-01-31 16:13:00,
2013-01-31 11:22:00,20.0,15.0,29.64,WSW,245,7.0,15.0,81,0.00,,,0.08,,2013-01-31 16:22:00,
2013-01-31 11:33:00,20.0,14.0,29.65,WSW,253,7.0,14.0,78,0.00,,,0.08,,2013-01-31 16:33:00,
2013-01-31 11:42:00,20.0,14.0,29.65,WSW,253,7.0,14.0,78,0.00,,,0.08,,2013-01-31 16:42:00,
2013-01-31 11:52:00,20.0,13.0,29.65,West,264,7.0,21.0,75,0.00,,,0.08,,2013-01-31 16:52:00,
2013-01-31 12:03:00,20.0,13.0,29.66,WNW,288,10.0,16.0,73,0.00,,,0.08,,2013-01-31 17:03:00,
2013-01-31 12:13:00,20.0,13.0,29.66,WNW,288,10.0,16.0,73,0.00,,,0.08,,2013-01-31 17:13:00,
2013-01-31 12:23:00,20.0,12.0,29.66,WNW,297,10.0,19.0,70,0.00,,,0.08,,2013-01-31 17:23:00,
2013-01-31 12:32:00,20.0,13.0,29.66,West,280,6.0,16.0,74,0.00,,,0.08,,2013-01-31 17:32:00,
2013-01-31 12:43:00,20.0,13.0,29.66,West,280,6.0,16.0,74,0.00,,,0.08,,2013-01-31 17:43:00,
2013-01-31 12:53:00,20.0,13.0,29.66,West,278,8.0,18.0,74,0.00,,,0.08,,2013-01-31 17:53:00,
2013-01-31 13:03:00,20.0,13.0,29.67,WNW,290,10.0,18.0,75,0.00,,,0.08,,2013-01-31 18:03:00,
2013-01-31 13:12:00,20.0,14.0,29.67,West,269,9.0,17.0,77,0.00,,,0.08,,2013-01-31 18:12:00,
2013-01-31 13:22:00,20.0,14.0,29.67,West,269,9.0,17.0,77,0.00,,,0.08,,2013-01-31 18:22:00,
2013-01-31 13:32:00,19.0,16.0,29.67,West,271,5.0,10.0,87,0.00,,,0.08,,2013-01-31 18:32:00,
2013-01-31 13:43:00,19.0,16.0,29.67,West,271,5.0,10.0,87,0.00,,,0.08,,2013-01-31 18:43:00,
2013-01-31 13:52:00,20.0,15.0,29.67,West,274,10.0,15.0,82,0.00,,,0.08,,2013-01-31 18:52:00,
2013-01-31 14:03:00,20.0,14.0,29.67,West,280,7.0,16.0,77,0.00,,,0.08,,2013-01-31 19:03:00,
2013-01-31 14:12:00,20.0,14.0,29.67,West,280,7.0,16.0,77,0.00,,,0.08,,2013-01-31 19:12:00,
2013-01-31 14:22:00,20.0,12.0,29.67,WSW,249,9.0,14.0,71,0.00,,,0.08,,2013-01-31 19:22:00,
2013-01-31 14:33:00,21.0,13.0,29.67,West,262,7.0,16.0,72,0.00,,,0.08,,2013-01-31 19:33:00,
2013-01-31 14:42:00,21.0,13.0,29.67,West,262,7.0,16.0,72,0.00,,,0.08,,2013-01-31 19:42:00,
2013-01-31 14:52:00,20.0,13.0,29.68,WNW,290,10.0,19.0,73,0.00,,,0.08,,2013-01-31 19:52:00,
2013-01-31 15:02:00,20.0,12.0,29.69,WSW,246,6.0,17.0,71,0.00,,,0.08,,2013-01-31 20:02:00,
2013-01-31 15:12:00,20.0,12.0,29.69,WSW,246,6.0,17.0,71,0.00,,,0.08,,2013-01-31 20:12:00,
2013-01-31 15:22:00,20.0,13.0,29.70,WSW,239,5.0,13.0,74,0.00,,,0.08,,2013-01-31 20:22:00,
2013-01-31 15:32:00,20.0,14.0,29.71,WSW,248,10.0,17.0,78,0.00,,,0.08,,2013-01-31 20:32:00,
2013-01-31 15:42:00,20.0,14.0,29.71,WSW,248,10.0,17.0,78,0.00,,,0.08,,2013-01-31 20:42:00,
2013-01-31 15:52:00,20.0,15.0,29.71,WSW,238,5.0,14.0,79,0.00,,,0.08,,2013-01-31 20:52:00,
2013-01-31 16:02:00,19.0,12.0,29.71,SW,220,10.0,19.0,73,0.00,,,0.08,,2013-01-31 21:02:00,
2013-01-31 16:12:00,19.0,12.0,29.71,SW,220,10.0,19.0,73,0.00,,,0.08,,2013-01-31 21:12:00,
2013-01-31 16:22:00,20.0,11.0,29.72,WSW,245,7.0,16.0,69,0.00,,,0.08,,2013-01-31 21:22:00,
2013-01-31 16:32:00,20.0,11.0,29.72,SW,232,8.0,16.0,67,0.00,,,0.08,,2013-01-31 21:32:00,
2013-01-31 16:42:00,20.0,11.0,29.72,SW,232,8.0,16.0,67,0.00,,,0.08,,2013-01-31 21:42:00,
2013-01-31 16:52:00,19.0,13.0,29.73,West,270,8.0,15.0,77,0.00,,,0.08,,2013-01-31 21:52:00,
2013-01-31 17:03:00,19.0,13.0,29.73,WNW,293,5.0,11.0,78,0.00,,,0.08,,2013-01-31 22:03:00,
2013-01-31 17:11:00,19.0,13.0,29.73,WNW,293,5.0,11.0,78,0.00,,,0.08,,2013-01-31 22:11:00,
2013-01-31 17:22:00,19.0,12.0,29.73,NW,304,6.0,15.0,74,0.00,,,0.08,,2013-01-31 22:22:00,
2013-01-31 17:33:00,18.0,13.0,29.73,NW,307,5.0,10.0,79,0.00,,,0.08,,2013-01-31 22:33:00,
2013-01-31 17:42:00,18.0,13.0,29.73,NW,307,5.0,10.0,79,0.00,,,0.08,,2013-01-31 22:42:00,
2013-01-31 17:51:00,18.0,13.0,29.74,WNW,288,7.0,13.0,79,0.00,,,0.08,,2013-01-31 22:51:00,
2013-01-31 18:03:00,18.0,11.0,29.75,WNW,291,7.0,13.0,73,0.00,,,0.08,,2013-01-31 23:03:00,
2013-01-31 18:12:00,18.0,11.0,29.75,WNW,291,7.0,13.0,73,0.00,,,0.08,,2013-01-31 23:12:00,
2013-01-31 18:22:00,18.0,10.0,29.75,West,278,7.0,12.0,71,0.00,,,0.08,,2013-01-31 23:22:00,
2013-01-31 18:32:00,18.0,11.0,29.76,WNW,291,3.0,13.0,73,0.00,,,0.08,,2013-01-31 23:32:00,
2013-01-31 18:42:00,18.0,11.0,29.76,WNW,291,3.0,13.0,73,0.00,,,0.08,,2013-01-31 23:42:00,
2013-01-31 18:52:00,18.0,11.0,29.77,WNW,286,6.0,12.0,73,0.00,,,0.08,,2013-01-31 23:52:00,
2013-01-31 19:02:00,17.0,11.0,29.78,SW,220,6.0,12.0,77,0.00,,,0.08,,2013-02-01 00:02:00,
2013-01-31 19:11:00,17.0,11.0,29.78,SW,220,6.0,12.0,77,0.00,,,0.08,,2013-02-01 00:11:00,
2013-01-31 19:22:00,17.0,11.0,29.79,WNW,283,8.0,14.0,77,0.00,,,0.08,,2013-02-01 00:22:00,
2013-01-31 19:32:00,17.0,12.0,29.79,WNW,286,6.0,13.0,82,0.00,,,0.05,,2013-02-01 00:32:00,
2013-01-31 19:42:00,17.0,12.0,29.79,WNW,286,6.0,13.0,82,0.00,,,0.05,,2013-02-01 00:42:00,
2013-01-31 19:51:00,16.0,13.0,29.80,WNW,283,5.0,8.0,87,0.00,,,0.05,,2013-02-01 00:51:00,
2013-01-31 20:01:00,16.0,13.0,29.80,WSW,253,3.0,8.0,88,0.00,,,0.05,,2013-02-01 01:01:00,
2013-01-31 20:11:00,17.0,14.0,29.81,WSW,244,3.0,12.0,87,0.00,,,0.05,,2013-02-01 01:11:00,
2013-01-31 20:21:00,17.0,14.0,29.81,WSW,244,3.0,12.0,87,0.00,,,0.05,,2013-02-01 01:21:00,
2013-01-31 20:32:00,16.0,13.0,29.81,West,278,4.0,15.0,86,0.00,,,0.03,,2013-02-01 01:32:00,
2013-01-31 20:42:00,16.0,13.0,29.81,West,278,4.0,15.0,86,0.00,,,0.03,,2013-02-01 01:42:00,
2013-01-31 20:52:00,16.0,12.0,29.82,West,280,6.0,10.0,84,0.00,,,0.03,,2013-02-01 01:52:00,
2013-01-31 21:02:00,16.0,13.0,29.83,West,273,2.0,8.0,86,0.00,,,0.03,,2013-02-01 02:02:00,
2013-01-31 21:11:00,16.0,13.0,29.83,West,273,2.0,8.0,86,0.00,,,0.03,,2013-02-01 02:11:00,
2013-01-31 21:21:00,16.0,12.0,29.83,SW,232,4.0,-999.0,84,-99.99,,,-99.99,,2013-02-01 02:21:00,
2013-01-31 21:32:00,16.0,11.0,29.83,WSW,255,4.0,10.0,82,0.00,,,0.01,,2013-02-01 02:32:00,
2013-01-31 21:42:00,16.0,11.0,29.83,WSW,255,4.0,10.0,82,0.00,,,0.01,,2013-02-01 02:42:00,
2013-01-31 21:52:00,16.0,11.0,29.84,WNW,286,6.0,11.0,82,0.00,,,0.01,,2013-02-01 02:52:00,
2013-01-31 22:02:00,16.0,13.0,29.84,West,267,3.0,9.0,87,0.00,,,0.01,,2013-02-01 03:02:00,
2013-01-31 22:12:00,16.0,13.0,29.84,West,267,3.0,9.0,87,0.00,,,0.01,,2013-02-01 03:12:00,
2013-01-31 22:21:00,16.0,13.0,29.85,WSW,253,3.0,7.0,87,0.00,,,0.01,,2013-02-01 03:21:00,
2013-01-31 22:33:00,16.0,13.0,29.85,West,275,3.0,8.0,89,0.00,,,0.01,,2013-02-01 03:33:00,
2013-01-31 22:42:00,16.0,13.0,29.85,West,275,3.0,8.0,89,0.00,,,0.01,,2013-02-01 03:42:00,
2013-01-31 22:51:00,15.0,13.0,29.85,NW,311,2.0,5.0,91,0.00,,,0.01,,2013-02-01 03:51:00,
2013-01-31 23:02:00,15.0,13.0,29.85,West,277,3.0,7.0,92,0.00,,,0.01,,2013-02-01 04:02:00,
2013-01-31 23:11:00,15.0,13.0,29.85,West,277,3.0,7.0,92,0.00,,,0.01,,2013-02-01 04:11:00,
2013-01-31 23:21:00,15.0,13.0,29.85,WNW,283,4.0,7.0,92,0.00,,,0.01,,2013-02-01 04:21:00,
2013-01-31 23:32:00,15.0,13.0,29.85,WNW,288,5.0,9.0,91,0.00,,,0.00,,2013-02-01 04:32:00,
2013-01-31 23:42:00,15.0,13.0,29.85,WNW,288,5.0,9.0,91,0.00,,,0.00,,2013-02-01 04:42:00,
2013-01-31 23:51:00,15.0,13.0,29.86,West,280,4.0,8.0,90,0.00,,,0.00,,2013-02-01 04:51:00,